Data for 01/25/2013

Time Sea-Level Adjusted Pressure Absolute Pressure Temperature Relative Humidity Dew Point   
(mb) (inHg) (mb) (inHg) (C) (F) (%) (C) (F)
00:05 1020 30.12 849 25.07 1.3 34.4 59 -5.8 21.6
00:10 1020 30.12 849 25.07 1.3 34.3 59 -5.9 21.4
00:15 1020 30.12 849 25.07 1.1 33.9 61 -5.7 21.7
00:20 1020 30.12 849 25.07 0.8 33.4 61 -5.9 21.4
00:25 1020 30.12 849 25.07 0.8 33.5 61 -5.8 21.6
00:30 1020 30.12 849 25.07 0.7 33.2 63 -5.6 21.8
00:35 1020 30.12 849 25.07 0.5 32.9 63 -5.8 21.6
00:40 1020 30.12 849 25.07 0.6 33.1 62 -5.8 21.5
00:45 1020 30.12 849 25.07 0.6 33 63 -5.7 21.7
00:50 1020 30.12 849 25.07 0 32.1 62 -6.3 20.6
00:55 1020 30.12 849 25.07 0.5 32.8 61 -6.1 21
01:00 1020 30.12 849 25.07 0.4 32.7 61 -6.3 20.7
01:05 1020 30.12 849 25.07 0.5 32.9 62 -6 21.2
01:10 1020 30.12 849 25.07 0.8 33.5 61 -5.8 21.5
01:15 1020 30.12 849 25.07 0.4 32.6 63 -5.9 21.4
01:20 1020 30.12 849 25.07 0.6 33 61 -6.1 20.9
01:25 1020 30.12 849 25.07 0.3 32.5 63 -5.9 21.4
01:30 1020 30.12 849 25.07 -0.1 31.9 65 -5.9 21.4
01:35 1020 30.12 849 25.07 -0.4 31.2 68 -5.7 21.7
01:40 1020 30.12 849 25.07 -0.8 30.5 68 -6.1 21.1
01:45 1020 30.12 849 25.07 -0.7 30.7 68 -5.9 21.3
01:50 1020 30.12 849 25.07 -0.3 31.5 64 -6.2 20.9
01:55 1020 30.12 849 25.07 -0.2 31.6 66 -5.8 21.5
02:00 1020 30.12 849 25.07 -0.6 30.9 66 -6.1 21
02:05 1020 30.12 849 25.07 -0.6 30.9 65 -6.3 20.6
02:10 1020 30.12 849 25.07 -0.7 30.8 66 -6.3 20.7
02:15 1020 30.12 849 25.07 -0.7 30.8 65 -6.6 20.2
02:20 1020 30.12 849 25.07 -0.6 30.9 64 -6.7 19.9
02:25 1020 30.12 849 25.07 -0.6 31 64 -6.6 20.2
02:30 1020 30.12 849 25.07 -0.7 30.7 64 -6.7 19.9
02:35 1020 30.12 849 25.07 -0.6 31 64 -6.6 20.2
02:40 1020 30.12 849 25.07 -0.4 31.3 62 -6.7 19.9
02:45 1020 30.12 849 25.07 -0.1 31.9 62 -6.5 20.4
02:50 1020 30.12 849 25.07 -0 32 62 -6.4 20.4
02:55 1020 30.12 849 25.07 -0 32 62 -6.4 20.6
03:00 1020 30.12 850 25.1 -0.1 31.9 63 -6.3 20.7
03:05 1020 30.12 850 25.1 -0.3 31.5 64 -6.2 20.9
03:10 1020 30.12 850 25.1 -0.5 31.1 65 -6.3 20.6
03:15 1020 30.12 850 25.1 -0.7 30.7 67 -6.1 21.1
03:20 1021 30.15 850 25.1 -1 30.1 69 -6.1 21.1
03:25 1021 30.15 850 25.1 -1.2 29.9 69 -6.1 21
03:30 1020 30.12 850 25.1 -0.8 30.5 68 -6.1 21.1
03:35 1021 30.15 850 25.1 -1.5 29.4 72 -6 21.3
03:40 1021 30.15 850 25.1 -1.7 28.9 72 -6.1 21.1
03:45 1021 30.15 850 25.1 -1.6 29.1 72 -6 21.2
03:50 1021 30.15 850 25.1 -1.4 29.4 71 -6 21.3
03:55 1021 30.15 850 25.1 -1 30.2 69 -5.9 21.4
04:00 1021 30.15 850 25.1 -0.6 30.9 69 -5.7 21.7
04:05 1021 30.15 850 25.1 -0.5 31.2 68 -5.7 21.8
04:10 1021 30.15 850 25.1 -0.4 31.3 69 -5.4 22.2
04:15 1021 30.15 850 25.1 -0.5 31.1 69 -5.5 22
04:20 1020 30.12 850 25.1 -0.4 31.2 68 -5.6 22
04:25 1021 30.15 850 25.1 -0.3 31.4 68 -5.5 22.1
04:30 1020 30.12 850 25.1 -0.2 31.6 68 -5.5 22.1
04:35 1020 30.12 850 25.1 -0.2 31.7 67 -5.5 22.1
04:40 1020 30.12 850 25.1 -0.4 31.3 68 -5.6 21.8
04:45 1020 30.12 850 25.1 -0.1 31.8 68 -5.4 22.2
04:50 1020 30.12 850 25.1 -0.2 31.6 67 -5.5 22.1
04:55 1020 30.12 850 25.1 -0.3 31.4 68 -5.5 22.2
05:00 1020 30.12 850 25.1 -0.4 31.4 69 -5.4 22.3
05:05 1020 30.12 849 25.07 -0.1 31.7 67 -5.5 22.1
05:10 1020 30.12 849 25.07 0.2 32.4 67 -5.2 22.6
05:15 1020 30.12 849 25.07 -0.4 31.2 69 -5.4 22.4
05:20 1020 30.12 849 25.07 -0.7 30.7 69 -5.7 21.7
05:25 1020 30.12 849 25.07 -0.7 30.8 69 -5.7 21.7
05:30 1020 30.12 849 25.07 -0.5 31.2 69 -5.5 22
05:35 1020 30.12 849 25.07 -0.6 31 69 -5.6 21.9
05:40 1020 30.12 849 25.07 -0.8 30.6 70 -5.6 22
05:45 1020 30.12 849 25.07 -1 30.2 71 -5.7 21.8
05:50 1020 30.12 849 25.07 -0.7 30.7 69 -5.8 21.6
05:55 1020 30.12 849 25.07 -0.6 31 70 -5.4 22.2
06:00 1020 30.12 849 25.07 -0.8 30.5 70 -5.6 22
06:05 1020 30.12 849 25.07 -1.1 30 72 -5.6 21.9
06:10 1020 30.12 849 25.07 -1.1 30 71 -5.7 21.8
06:15 1020 30.12 849 25.07 -1.3 29.7 72 -5.7 21.7
06:20 1020 30.12 849 25.07 -1.2 29.8 71 -5.8 21.6
06:25 1020 30.12 849 25.07 -1 30.2 70 -5.9 21.4
06:30 1020 30.12 849 25.07 -0.6 30.8 67 -6 21.3
06:35 1020 30.12 849 25.07 -0.1 31.8 66 -5.7 21.8
06:40 1020 30.12 849 25.07 -0.3 31.5 66 -5.8 21.5
06:45 1020 30.12 849 25.07 0.1 32.2 66 -5.5 22.1
06:50 1020 30.12 849 25.07 0.1 32.1 66 -5.5 22.1
06:55 1020 30.12 849 25.07 0 32.1 68 -5.2 22.6
07:00 1020 30.12 849 25.07 -0.4 31.4 69 -5.4 22.3
07:05 1020 30.12 850 25.1 -0.8 30.5 69 -5.9 21.4
07:10 1020 30.12 849 25.07 -0.7 30.7 69 -5.7 21.7
07:15 1020 30.12 850 25.1 -0.9 30.4 70 -5.6 21.9
07:20 1020 30.12 850 25.1 -1.2 29.8 71 -5.8 21.6
07:25 1021 30.15 850 25.1 -1.2 29.8 72 -5.7 21.7
07:30 1020 30.12 850 25.1 -1 30.2 71 -5.6 21.9
07:35 1020 30.12 850 25.1 -0.5 31 69 -5.6 21.9
07:40 1020 30.12 849 25.07 -0.3 31.5 68 -5.6 22
07:45 1020 30.12 849 25.07 -0.1 31.8 67 -5.5 22.1
07:50 1020 30.12 849 25.07 -0.2 31.6 67 -5.6 22
07:55 1020 30.12 849 25.07 -0.2 31.7 68 -5.5 22.2
08:00 1020 30.12 849 25.07 -0.2 31.6 66 -5.9 21.5
08:05 1020 30.12 849 25.07 0 32 65 -5.9 21.5
08:10 1020 30.12 849 25.07 0.3 32.5 64 -5.8 21.6
08:15 1020 30.12 849 25.07 0.6 33 62 -5.9 21.4
08:20 1020 30.12 849 25.07 0.9 33.6 61 -5.8 21.6
08:25 1020 30.12 849 25.07 1.1 34 60 -5.7 21.7
08:30 1020 30.12 849 25.07 1.1 34.1 61 -5.6 22
08:35 1020 30.12 849 25.07 1 33.8 63 -5.3 22.4
08:40 1020 30.12 849 25.07 0.7 33.2 66 -5 22.9
08:45 1020 30.12 849 25.07 0.5 32.9 65 -5.3 22.5
08:50 1020 30.12 849 25.07 0.5 32.9 64 -5.5 22.2
08:55 1020 30.12 849 25.07 0.5 32.8 67 -5 22.9
09:00 1020 30.12 849 25.07 0.1 32.2 68 -5.1 22.8
09:05 1020 30.12 849 25.07 0 32 68 -5.3 22.5
09:10 1020 30.12 849 25.07 -0.1 31.9 69 -5.1 22.8
09:15 1020 30.12 849 25.07 0.1 32.1 68 -5.1 22.8
09:20 1020 30.12 849 25.07 0.2 32.4 67 -5.3 22.5
09:25 1020 30.12 849 25.07 0.4 32.7 66 -5.3 22.5
09:30 1020 30.12 849 25.07 0.4 32.7 67 -5.1 22.8
09:35 1020 30.12 849 25.07 0.1 32.2 68 -5.2 22.7
09:40 1020 30.12 849 25.07 0.3 32.5 66 -5.4 22.3
09:45 1020 30.12 849 25.07 0.5 32.9 66 -5.1 22.8
09:50 1020 30.12 849 25.07 0.4 32.7 67 -5 23.1
09:55 1020 30.12 849 25.07 0.1 32.2 68 -5.1 22.9
10:00 1020 30.12 849 25.07 0.1 32.2 66 -5.4 22.2
10:05 1020 30.12 849 25.07 0.4 32.7 65 -5.5 22.2
10:10 1020 30.12 849 25.07 0.7 33.2 64 -5.4 22.3
10:15 1020 30.12 849 25.07 0.9 33.6 64 -5.1 22.8
10:20 1020 30.12 849 25.07 0.9 33.6 64 -5.1 22.8
10:25 1020 30.12 849 25.07 1.1 34 62 -5.4 22.3
10:30 1020 30.12 849 25.07 1.3 34.4 61 -5.4 22.2
10:35 1020 30.12 849 25.07 2.2 35.9 56 -5.6 21.9
10:40 1020 30.12 849 25.07 2.6 36.7 56 -5.3 22.4
10:45 1020 30.12 849 25.07 2.8 37 55 -5.5 22.1
10:50 1020 30.12 849 25.07 2.8 37.1 55 -5.4 22.3
10:55 1020 30.12 849 25.07 3.3 37.9 54 -5.1 22.8
11:00 1020 30.12 849 25.07 3.3 38 54 -5 23
11:05 1020 30.12 849 25.07 3.1 37.6 52 -5.7 21.7
11:10 1020 30.12 849 25.07 3.6 38.6 49 -6.2 20.8
11:15 1020 30.12 849 25.07 4.9 40.8 44 -6.5 20.4
11:20 1020 30.12 849 25.07 5.6 42.1 43 -5.9 21.4
11:25 1020 30.12 849 25.07 5.8 42.4 42 -6 21.2
11:30 1020 30.12 849 25.07 5.8 42.5 42 -6.2 20.9
11:35 1020 30.12 849 25.07 5.9 42.5 42 -5.9 21.3
11:40 1020 30.12 849 25.07 5.9 42.5 42 -6.1 21
11:45 1020 30.12 849 25.07 5.6 42.1 42 -6.3 20.7
11:50 1020 30.12 849 25.07 5.9 42.5 41 -6.3 20.7
11:55 1020 30.12 849 25.07 6 42.8 41 -6.2 20.9
12:00 1020 30.12 849 25.07 5.9 42.6 42 -5.9 21.3
12:05 1020 30.12 849 25.07 6 42.7 42 -6 21.2
12:10 1020 30.12 849 25.07 6 42.7 43 -5.7 21.8
12:15 1020 30.12 849 25.07 5.5 41.9 46 -5.2 22.7
12:20 1020 30.12 849 25.07 5 41.1 46 -5.6 21.9
12:25 1020 30.12 849 25.07 5.1 41.2 45 -5.8 21.5
12:30 1020 30.12 849 25.07 4.9 40.9 46 -5.7 21.7
12:35 1020 30.12 849 25.07 4.9 40.9 44 -6.4 20.5
12:40 1020 30.12 849 25.07 4.8 40.6 46 -5.9 21.3
12:45 1020 30.12 849 25.07 5 41 45 -5.9 21.4
12:50 1020 30.12 849 25.07 5.1 41.1 46 -5.8 21.6
12:55 1020 30.12 849 25.07 5.3 41.6 44 -6.1 21.1
13:00 1020 30.12 849 25.07 5 41.1 46 -5.6 21.9
13:05 1019 30.09 849 25.07 5.2 41.3 43 -6.4 20.5
13:10 1019 30.09 849 25.07 5.4 41.8 40 -7.2 19
13:15 1019 30.09 849 25.07 5.7 42.3 41 -6.6 20.2
13:20 1019 30.09 848 25.04 5.9 42.6 43 -5.8 21.5
13:25 1019 30.09 848 25.04 6 42.8 43 -5.7 21.7
13:30 1019 30.09 848 25.04 5.8 42.5 47 -4.5 24
13:35 1019 30.09 848 25.04 5.6 42.1 48 -4.6 23.7
13:40 1019 30.09 848 25.04 5.3 41.5 49 -4.5 23.9
13:45 1019 30.09 848 25.04 5.7 42.2 47 -4.8 23.4
13:50 1019 30.09 848 25.04 5.7 42.2 51 -3.8 25.2
13:55 1019 30.09 848 25.04 5.1 41.3 51 -4.1 24.6
14:00 1019 30.09 848 25.04 5.1 41.2 51 -4.3 24.3
14:05 1019 30.09 848 25.04 5.3 41.5 51 -4 24.9
14:10 1019 30.09 848 25.04 5 40.9 52 -4.1 24.6
14:15 1019 30.09 848 25.04 5.1 41.2 50 -4.4 24
14:20 1019 30.09 848 25.04 5.3 41.5 47 -5.2 22.6
14:25 1018 30.06 848 25.04 5.1 41.1 51 -4.3 24.2
14:30 1018 30.06 848 25.04 5.5 41.8 48 -4.6 23.7
14:35 1018 30.06 848 25.04 5.7 42.2 47 -4.6 23.7
14:40 1018 30.06 848 25.04 6 42.7 47 -4.4 24.2
14:45 1018 30.06 847 25.01 5.5 41.9 50 -4 24.8
14:50 1018 30.06 847 25.01 5.2 41.4 52 -3.9 25
14:55 1018 30.06 847 25.01 5 41.1 53 -3.9 25
15:00 1018 30.06 847 25.01 5.3 41.6 51 -3.9 25
15:05 1018 30.06 847 25.01 5.7 42.2 51 -3.8 25.2
15:10 1018 30.06 847 25.01 5.5 42 52 -3.6 25.6
15:15 1018 30.06 847 25.01 5.2 41.3 55 -3.1 26.4
15:20 1018 30.06 847 25.01 4.6 40.4 56 -3.4 25.9
15:25 1018 30.06 847 25.01 4.6 40.2 54 -3.9 25
15:30 1018 30.06 847 25.01 5.4 41.7 52 -3.7 25.4
15:35 1018 30.06 847 25.01 5.9 42.5 50 -3.8 25.2
15:40 1018 30.06 847 25.01 5.8 42.5 49 -4 24.8
15:45 1018 30.06 847 25.01 5.8 42.5 48 -4.2 24.4
15:50 1018 30.06 847 25.01 5.7 42.2 49 -4.1 24.6
15:55 1018 30.06 847 25.01 5.4 41.6 47 -4.9 23.2
16:00 1018 30.06 847 25.01 5.4 41.8 48 -4.8 23.3
16:05 1018 30.06 847 25.01 5.4 41.7 49 -4.5 23.9
16:10 1018 30.06 847 25.01 5.2 41.4 51 -4.2 24.5
16:15 1018 30.06 847 25.01 5.2 41.4 48 -4.9 23.2
16:20 1018 30.06 847 25.01 4.9 40.9 50 -4.6 23.7
16:25 1018 30.06 847 25.01 4.8 40.6 53 -4.1 24.7
16:30 1017 30.03 847 25.01 4.7 40.5 53 -4.1 24.7
16:35 1017 30.03 847 25.01 4.7 40.5 52 -4.2 24.4
16:40 1017 30.03 847 25.01 4.8 40.6 51 -4.6 23.8
16:45 1017 30.03 847 25.01 4.8 40.7 50 -4.8 23.4
16:50 1017 30.03 847 25.01 5.1 41.2 48 -4.9 23.2
16:55 1017 30.03 847 25.01 5.5 41.8 47 -5 23
17:00 1017 30.03 847 25.01 5.4 41.8 48 -4.8 23.4
17:05 1017 30.03 846 24.98 5.4 41.8 48 -4.8 23.3
17:10 1017 30.03 846 24.98 5.5 41.8 46 -5.4 22.3
17:15 1017 30.03 846 24.98 5.5 42 45 -5.3 22.4
17:20 1017 30.03 846 24.98 5.5 41.9 45 -5.4 22.4
17:25 1017 30.03 846 24.98 5.5 41.9 46 -5.2 22.7
17:30 1017 30.03 846 24.98 5.5 41.9 47 -5 23.1
17:35 1017 30.03 846 24.98 5.5 41.9 47 -4.9 23.1
17:40 1017 30.03 846 24.98 5.6 42 48 -4.5 23.9
17:45 1017 30.03 846 24.98 5.6 42 47 -4.9 23.1
17:50 1017 30.03 846 24.98 5.5 41.8 49 -4.5 23.9
17:55 1017 30.03 846 24.98 5.4 41.7 48 -4.8 23.4
18:00 1017 30.03 846 24.98 5.5 41.9 49 -4.2 24.4
18:05 1017 30.03 846 24.98 5.5 41.9 50 -4.1 24.6
18:10 1017 30.03 846 24.98 5.4 41.8 51 -3.8 25.1
18:15 1017 30.03 846 24.98 5.4 41.7 51 -4 24.9
18:20 1017 30.03 846 24.98 5.3 41.5 51 -4 24.8
18:25 1017 30.03 846 24.98 5.1 41.2 52 -3.9 24.9
18:30 1017 30.03 846 24.98 4.9 40.7 53 -4 24.8
18:35 1017 30.03 846 24.98 4.7 40.4 53 -4 24.8
18:40 1017 30.03 846 24.98 4.5 40.1 55 -3.8 25.2
18:45 1017 30.03 846 24.98 4.4 39.8 56 -3.7 25.3
18:50 1017 30.03 846 24.98 4.2 39.6 56 -3.9 25
18:55 1017 30.03 846 24.98 4.1 39.5 56 -3.8 25.2
19:00 1017 30.03 846 24.98 4.1 39.3 58 -3.5 25.8
19:05 1017 30.03 846 24.98 3.9 39 59 -3.5 25.7
19:10 1017 30.03 846 24.98 3.7 38.7 60 -3.3 26.1
19:15 1017 30.03 846 24.98 3.6 38.5 60 -3.4 25.9
19:20 1017 30.03 846 24.98 3.6 38.5 58 -3.8 25.2
19:25 1017 30.03 846 24.98 3.6 38.5 60 -3.5 25.7
19:30 1017 30.03 846 24.98 3.7 38.6 60 -3.4 25.9
19:35 1017 30.03 846 24.98 3.7 38.6 59 -3.7 25.4
19:40 1017 30.03 846 24.98 3.6 38.5 58 -3.8 25.1
19:45 1017 30.03 846 24.98 3.7 38.6 59 -3.6 25.5
19:50 1017 30.03 846 24.98 3.7 38.6 58 -3.7 25.3
19:55 1017 30.03 846 24.98 3.6 38.5 61 -3.3 26.1
20:00 1016 30 846 24.98 3.3 37.9 63 -3.1 26.3
20:05 1016 30 846 24.98 3 37.5 64 -3.1 26.5
20:10 1016 30 846 24.98 2.9 37.2 64 -3.2 26.2
20:15 1016 30 846 24.98 2.8 37 64 -3.3 26
20:20 1016 30 846 24.98 2.8 37 63 -3.6 25.5
20:25 1016 30 846 24.98 2.9 37.2 64 -3.3 26.1
20:30 1016 30 845 24.95 2.9 37.3 62 -3.6 25.6
20:35 1016 30 845 24.95 2.9 37.3 63 -3.4 25.9
20:40 1016 30 845 24.95 3 37.4 63 -3.5 25.8
20:45 1016 30 845 24.95 3.1 37.5 63 -3.4 25.9
20:50 1016 30 845 24.95 3.2 37.7 62 -3.4 25.9
20:55 1016 30 845 24.95 3.2 37.8 62 -3.3 26
21:00 1016 30 845 24.95 3.1 37.6 64 -3.1 26.5
21:05 1016 30 845 24.95 2.9 37.2 62 -3.7 25.3
21:10 1016 30 845 24.95 2.7 36.9 64 -3.3 26
21:15 1016 30 845 24.95 2.9 37.2 58 -4.7 23.6
21:20 1016 30 845 24.95 3.3 37.9 63 -3 26.6
21:25 1016 30 845 24.95 3.2 37.7 58 -4.3 24.3
21:30 1016 30 845 24.95 3.5 38.4 57 -4.2 24.5
21:35 1016 30 845 24.95 3.6 38.5 59 -3.6 25.5
21:40 1016 30 845 24.95 3.5 38.3 58 -4.1 24.6
21:45 1016 30 845 24.95 3.7 38.6 57 -4.2 24.5
21:50 1016 30 845 24.95 3.6 38.5 62 -3 26.5
21:55 1016 30 845 24.95 3.3 37.9 58 -4.2 24.5
22:00 1016 30 845 24.95 3.6 38.5 52 -5.2 22.6
22:05 1016 30 845 24.95 4 39.2 62 -2.7 27.2
22:10 1016 30 845 24.95 3.1 37.6 65 -2.8 27
22:15 1016 30 845 24.95 2.6 36.7 68 -2.8 27
22:20 1016 30 845 24.95 2.5 36.6 64 -3.5 25.6
22:25 1016 30 845 24.95 2.8 37.1 65 -3 26.5
22:30 1016 30 845 24.95 2.9 37.2 68 -2.5 27.5
22:35 1016 30 845 24.95 2.8 37 65 -3.1 26.4
22:40 1016 30 845 24.95 2.9 37.2 66 -2.9 26.7
22:45 1016 30 845 24.95 3 37.4 62 -3.5 25.7
22:50 1016 30 845 24.95 3.2 37.7 62 -3.5 25.8
22:55 1016 30 845 24.95 3.2 37.8 64 -2.8 26.9
23:00 1016 30 845 24.95 3.1 37.7 59 -4 24.7
23:05 1016 30 845 24.95 3.4 38.1 60 -3.7 25.4
23:10 1016 30 845 24.95 3.4 38.1 62 -3.2 26.2
23:15 1016 30 845 24.95 3 37.4 62 -3.6 25.5
23:20 1016 30 845 24.95 3.2 37.8 62 -3.4 25.9
23:25 1016 30 845 24.95 3.5 38.4 64 -2.7 27.2
23:30 1016 30 845 24.95 3.2 37.7 63 -3.2 26.3
23:35 1016 30 845 24.95 3.2 37.7 65 -2.9 26.8
23:40 1016 30 845 24.95 3.1 37.7 65 -2.8 26.9
23:45 1016 30 845 24.95 3.1 37.6 64 -3.1 26.4
23:50 1016 30 845 24.95 3.3 38 63 -2.9 26.7
23:55 1016 30 845 24.95 3.4 38.2 64 -2.8 27
24:00 1016 30 845 24.95 3.4 38.1 64 -2.8 27